Terminal Aerodrome Forecast
Issued by NWS Hastings, NE

Home | Current Version | Previous Version | Text Only | Print | Product List | Glossary On
Versions: 1 2 3 4 5 6 7 8 9 10 11 12 13 14 15
000
FTUS43 KGID 282338
TAFGRI
TAF
KGRI 282338Z 2900/2924 15009KT P6SM FEW050 SCT070
     FM290300 14006KT P6SM BKN130
     FM290700 17006KT P6SM BKN140
     FM290900 19005KT P6SM VCTS BKN140CB
     FM291100 17005KT P6SM BKN070=

USA.gov is the U.S. government's official web portal to all federal, state and local government web resources and services.